createdAt,value
2022-09-16T00:01:05.404Z,95929.75
2022-09-16T00:03:37.383Z,95935.75
2022-09-16T00:06:08.018Z,95915.13
2022-09-16T00:08:35.567Z,95924.88
2022-09-16T00:11:03.710Z,95922.31
2022-09-16T00:13:39.161Z,95915.56
2022-09-16T00:16:08.547Z,95915.25
2022-09-16T00:18:36.289Z,95914.78
2022-09-16T00:21:03.925Z,95912.63
2022-09-16T00:23:32.670Z,95918.09
2022-09-16T00:26:00.510Z,95923.28
2022-09-16T00:28:27.993Z,95932.69
2022-09-16T00:30:59.647Z,95927.13
2022-09-16T00:33:27.206Z,95924.38
2022-09-16T00:35:55.139Z,95927.13
2022-09-16T00:47:27.469Z,95918.06
2022-09-16T00:49:55.813Z,95921.03
2022-09-16T00:52:23.555Z,95924.91
2022-09-16T00:54:51.135Z,95917.94
2022-09-16T00:57:18.713Z,95931.47
2022-09-16T00:59:47.598Z,95923.75
2022-09-16T01:02:21.245Z,95931.59
2022-09-16T01:04:52.462Z,95930.09
2022-09-16T01:07:25.215Z,95937.59
2022-09-16T01:09:52.899Z,95938.28
2022-09-16T01:12:22.000Z,95938.50
2022-09-16T01:14:55.191Z,95929.88
2022-09-16T01:17:25.748Z,95924.53
2022-09-16T01:20:03.275Z,95926.75
2022-09-16T01:22:36.527Z,95928.34
2022-09-16T01:25:07.634Z,95927.38
2022-09-16T01:27:57.938Z,95929.63
2022-09-16T01:30:52.578Z,95923.84
2022-09-16T01:33:25.247Z,95923.47
2022-09-16T01:36:02.428Z,95913.47
2022-09-16T01:38:35.769Z,95916.47
2022-09-16T01:41:08.211Z,95919.38
2022-09-16T01:43:38.368Z,95925.56
2022-09-16T01:46:09.789Z,95931.63
2022-09-16T01:48:40.898Z,95926.00
2022-09-16T01:51:09.258Z,95927.94
2022-09-16T01:53:43.948Z,95936.69
2022-09-16T01:56:16.073Z,95933.66
2022-09-16T01:58:44.713Z,95927.69
2022-09-16T02:01:13.785Z,95920.59
2022-09-16T02:03:43.317Z,95921.25
2022-09-16T02:06:11.862Z,95915.22
2022-09-16T02:08:41.282Z,95906.88
2022-09-16T02:11:09.929Z,95905.53
2022-09-16T02:13:41.106Z,95914.00
2022-09-16T02:16:10.469Z,95906.22
2022-09-16T02:18:38.797Z,95913.00
2022-09-16T02:21:08.979Z,95910.91
2022-09-16T02:23:39.828Z,95916.03
2022-09-16T02:26:07.842Z,95912.13
2022-09-16T02:28:35.913Z,95914.19
2022-09-16T02:31:05.597Z,95916.44
2022-09-16T02:33:36.538Z,95911.94
2022-09-16T02:36:04.344Z,95912.44
2022-09-16T02:38:34.784Z,95909.47
2022-09-16T02:41:02.411Z,95916.88
2022-09-16T02:43:30.410Z,95914.63
2022-09-16T02:46:05.460Z,95911.94
2022-09-16T02:48:40.253Z,95903.72
2022-09-16T02:51:13.657Z,95916.38
2022-09-16T02:53:45.456Z,95910.19
2022-09-16T02:56:20.417Z,95911.66
2022-09-16T02:58:48.299Z,95948.84
2022-09-16T03:01:16.858Z,95903.25
2022-09-16T03:03:44.514Z,95746.19
2022-09-16T03:06:15.961Z,95902.81
2022-09-16T03:08:45.728Z,95903.44
2022-09-16T03:11:17.715Z,95907.16
2022-09-16T03:13:46.109Z,95895.69
2022-09-16T03:16:17.059Z,95899.47
2022-09-16T03:18:48.302Z,95893.91
2022-09-16T03:21:19.248Z,95896.03
2022-09-16T03:23:50.381Z,95888.56
2022-09-16T03:26:21.915Z,95893.59
2022-09-16T03:28:52.117Z,95897.63
2022-09-16T03:31:20.194Z,95891.19
2022-09-16T03:33:49.212Z,95887.13
2022-09-16T03:36:18.089Z,95885.06
2022-09-16T03:38:46.304Z,95886.16
2022-09-16T03:41:15.546Z,95894.78
2022-09-16T03:43:53.267Z,95885.38
2022-09-16T03:46:21.001Z,95889.25
2022-09-16T03:48:48.672Z,95896.31
2022-09-16T03:51:16.497Z,95893.66
2022-09-16T03:53:45.911Z,95887.91
2022-09-16T03:56:15.155Z,95879.19
2022-09-16T03:58:45.874Z,95889.59
2022-09-16T04:01:18.435Z,95876.91
2022-09-16T04:03:46.178Z,95880.84
2022-09-16T04:06:15.917Z,95882.56
2022-09-16T04:08:44.477Z,95867.94
2022-09-16T04:11:12.133Z,95875.97
2022-09-16T04:13:41.570Z,95874.06
2022-09-16T04:16:14.395Z,95869.66
2022-09-16T04:18:44.967Z,95866.97
2022-09-16T04:21:12.504Z,95865.91
2022-09-16T04:23:41.144Z,95857.88
2022-09-16T04:29:02.907Z,95863.84
2022-09-16T04:31:30.611Z,95859.44
2022-09-16T04:34:01.006Z,95857.88
2022-09-16T04:36:32.049Z,95846.56
2022-09-16T04:38:59.706Z,95846.25
2022-09-16T04:41:30.560Z,95843.25
2022-09-16T04:43:59.022Z,95854.59
2022-09-16T04:46:32.797Z,95869.16
2022-09-16T04:49:01.061Z,95875.84
2022-09-16T04:51:29.041Z,95867.56
2022-09-16T04:53:57.053Z,95863.81
2022-09-16T04:56:28.258Z,95865.56
2022-09-16T04:58:58.972Z,95865.56
2022-09-16T05:01:29.197Z,95872.44
2022-09-16T05:04:00.406Z,95870.44
2022-09-16T05:06:28.939Z,95878.63
2022-09-16T05:08:59.750Z,95873.72
2022-09-16T05:11:28.470Z,95870.91
2022-09-16T05:13:59.470Z,95869.56
2022-09-16T05:16:32.859Z,95875.16
2022-09-16T05:19:05.012Z,95870.44
2022-09-16T05:21:36.970Z,95871.25
2022-09-16T05:24:05.290Z,95866.06
2022-09-16T05:26:35.579Z,95857.25
2022-09-16T05:29:03.919Z,95870.13
2022-09-16T05:31:34.066Z,95862.59
2022-09-16T05:34:02.289Z,95869.16
2022-09-16T05:36:31.173Z,95877.03
2022-09-16T05:39:21.629Z,95873.44
2022-09-16T05:41:46.993Z,95879.97
2022-09-16T05:44:15.250Z,95883.22
2022-09-16T05:46:44.916Z,95889.56
2022-09-16T05:49:13.507Z,95866.78
2022-09-16T05:51:42.176Z,95873.41
2022-09-16T05:54:10.065Z,95884.09
2022-09-16T05:56:37.849Z,95884.06
2022-09-16T05:59:05.797Z,95883.91
2022-09-16T06:01:34.093Z,95887.69
2022-09-16T06:04:04.267Z,95883.44
2022-09-16T06:06:32.857Z,95878.75
2022-09-16T06:09:02.751Z,95880.69
2022-09-16T06:11:30.971Z,95881.31
2022-09-16T06:14:00.082Z,95886.47
2022-09-16T06:16:28.212Z,95883.19
2022-09-16T06:18:57.220Z,95888.34
2022-09-16T06:21:26.915Z,95885.84
2022-09-16T06:23:54.936Z,95893.06
2022-09-16T06:26:23.567Z,95891.78
2022-09-16T06:28:53.484Z,95676.75
2022-09-16T06:31:24.950Z,95896.25
2022-09-16T06:33:53.487Z,95900.38
2022-09-16T06:36:26.264Z,95894.78
2022-09-16T06:38:56.418Z,95888.34
2022-09-16T06:41:24.284Z,95644.78
2022-09-16T06:43:52.033Z,95902.38
2022-09-16T06:46:22.234Z,95903.59
2022-09-16T06:48:51.142Z,95902.34
2022-09-16T06:51:21.061Z,95900.66
2022-09-16T06:53:48.696Z,95907.66
2022-09-16T06:56:18.821Z,95900.38
2022-09-16T06:58:48.054Z,95909.09
2022-09-16T07:01:17.054Z,95911.69
2022-09-16T07:03:45.600Z,95906.97
2022-09-16T07:06:14.413Z,95912.78
2022-09-16T07:08:42.452Z,95910.28
2022-09-16T07:11:11.774Z,95921.16
2022-09-16T07:13:41.810Z,95923.28
2022-09-16T07:16:13.683Z,95925.28
2022-09-16T07:18:42.651Z,95938.09
2022-09-16T07:21:11.787Z,95911.28
2022-09-16T07:23:39.932Z,95694.16
2022-09-16T07:26:09.142Z,95913.09
2022-09-16T07:28:38.028Z,95916.16
2022-09-16T07:31:10.167Z,95917.41
2022-09-16T07:33:41.322Z,95911.56
2022-09-16T07:36:10.098Z,95910.09
2022-09-16T07:38:43.391Z,95906.16
2022-09-16T07:41:18.291Z,95911.91
2022-09-16T07:43:46.141Z,95918.81
2022-09-16T07:46:18.139Z,95926.09
2022-09-16T07:48:50.421Z,95930.78
2022-09-16T07:51:19.144Z,95694.72
2022-09-16T07:53:47.317Z,95936.06
2022-09-16T07:56:16.074Z,95935.19
2022-09-16T07:58:44.909Z,95934.38
2022-09-16T08:01:13.107Z,95935.00
2022-09-16T08:03:43.027Z,95925.44
2022-09-16T08:06:14.674Z,95925.63
2022-09-16T08:08:42.650Z,95925.00
2022-09-16T08:11:12.435Z,95930.81
2022-09-16T08:13:40.530Z,95930.78
2022-09-16T08:16:09.321Z,95941.75
2022-09-16T08:18:37.611Z,95935.13
2022-09-16T08:21:08.322Z,95936.53
2022-09-16T08:23:36.189Z,95941.66
2022-09-16T08:26:04.526Z,95932.97
2022-09-16T08:28:45.244Z,95944.19
2022-09-16T08:31:28.643Z,95953.19
2022-09-16T08:34:03.649Z,95949.44
2022-09-16T08:36:37.346Z,95949.03
2022-09-16T08:39:09.131Z,95963.28
2022-09-16T08:41:41.738Z,95951.69
2022-09-16T08:44:15.733Z,95958.59
2022-09-16T08:46:44.465Z,95963.19
2022-09-16T08:49:16.342Z,95962.78
2022-09-16T08:51:45.463Z,95955.00
2022-09-16T08:54:14.623Z,95953.06
2022-09-16T08:56:44.961Z,95953.59
2022-09-16T08:59:13.693Z,95953.88
2022-09-16T09:01:44.101Z,95957.06
2022-09-16T09:04:13.221Z,95956.88
2022-09-16T09:06:47.333Z,95958.06
2022-09-16T09:09:19.735Z,95958.59
2022-09-16T09:12:06.282Z,95961.13
2022-09-16T09:14:37.311Z,95960.78
2022-09-16T09:17:09.199Z,95955.72
2022-09-16T09:19:41.715Z,95951.34
2022-09-16T09:22:28.176Z,95952.91
2022-09-16T09:25:03.152Z,95748.53
2022-09-16T09:27:33.200Z,95957.94
2022-09-16T09:30:05.951Z,95963.84
2022-09-16T09:32:48.429Z,95953.81
2022-09-16T09:35:31.880Z,95945.38
2022-09-16T09:38:11.999Z,95946.81
2022-09-16T09:40:40.609Z,95955.59
2022-09-16T09:43:11.261Z,95952.09
2022-09-16T09:45:39.887Z,95946.19
2022-09-16T09:48:11.405Z,95954.31
2022-09-16T09:50:41.097Z,95956.22
2022-09-16T09:53:14.678Z,95949.91
2022-09-16T09:55:43.165Z,95954.44
2022-09-16T09:58:15.862Z,95960.13
2022-09-16T10:00:43.602Z,95965.31
2022-09-16T10:03:12.598Z,95960.75
2022-09-16T10:05:43.402Z,95958.13
2022-09-16T10:08:16.611Z,95958.47
2022-09-16T10:10:48.511Z,95961.50
2022-09-16T10:13:17.445Z,95959.09
2022-09-16T10:15:46.754Z,95959.06
2022-09-16T10:18:16.698Z,95970.25
2022-09-16T10:20:47.805Z,95974.13
2022-09-16T10:23:20.728Z,95963.75
2022-09-16T10:25:48.967Z,95964.94
2022-09-16T10:28:22.694Z,95948.53
2022-09-16T10:30:51.086Z,95944.31
2022-09-16T10:33:19.527Z,95942.00
2022-09-16T10:35:52.773Z,95944.22
2022-09-16T10:38:23.942Z,95953.03
2022-09-16T10:40:52.531Z,95949.63
2022-09-16T10:43:21.750Z,95942.13
2022-09-16T10:45:50.281Z,95954.25
2022-09-16T10:48:18.627Z,95980.44
2022-09-16T10:50:53.864Z,95967.34
2022-09-16T10:53:24.535Z,95963.22
2022-09-16T10:55:58.085Z,95973.00
2022-09-16T10:58:26.089Z,95978.34
2022-09-16T11:00:57.636Z,95972.66
2022-09-16T11:03:50.233Z,95979.47
2022-09-16T11:06:21.918Z,95974.28
2022-09-16T11:08:56.770Z,95975.34
2022-09-16T11:11:28.532Z,95966.09
2022-09-16T11:13:57.274Z,95966.63
2022-09-16T11:16:29.912Z,95973.91
2022-09-16T11:18:59.537Z,95971.47
2022-09-16T11:21:31.461Z,95977.72
2022-09-16T11:24:17.648Z,95970.78
2022-09-16T11:26:55.183Z,95973.25
2022-09-16T11:29:35.202Z,95983.22
2022-09-16T11:32:05.051Z,95965.28
2022-09-16T11:34:36.776Z,95970.38
2022-09-16T11:37:06.707Z,95964.06
2022-09-16T11:39:41.227Z,95961.13
2022-09-16T11:42:12.084Z,95964.88
2022-09-16T11:44:43.854Z,95967.13
2022-09-16T11:47:15.271Z,95962.25
2022-09-16T11:49:48.600Z,95968.34
2022-09-16T11:52:22.241Z,95959.06
2022-09-16T11:55:11.438Z,95960.13
2022-09-16T11:57:44.133Z,95951.56
2022-09-16T12:00:13.075Z,95945.34
2022-09-16T12:02:45.942Z,95940.69
2022-09-16T12:05:15.218Z,95946.13
2022-09-16T12:07:45.225Z,95929.63
2022-09-16T12:10:16.564Z,95930.06
2022-09-16T12:12:46.232Z,95935.28
2022-09-16T12:15:17.167Z,95929.91
2022-09-16T12:17:46.627Z,95937.00
2022-09-16T12:20:19.758Z,95931.69
2022-09-16T12:22:49.381Z,95934.56
2022-09-16T12:25:19.577Z,95933.56
2022-09-16T12:28:02.199Z,95939.44
2022-09-16T12:30:34.390Z,95935.44
2022-09-16T12:33:06.185Z,95923.91
2022-09-16T12:35:36.105Z,95937.13
2022-09-16T12:38:06.957Z,95929.03
2022-09-16T12:40:39.492Z,95929.16
2022-09-16T12:43:17.502Z,95938.09
2022-09-16T12:45:59.605Z,95928.88
2022-09-16T12:48:37.368Z,95917.75
2022-09-16T12:51:20.455Z,95924.47
2022-09-16T12:53:50.715Z,95915.03
2022-09-16T12:56:21.881Z,95920.53
2022-09-16T12:59:05.301Z,95909.97
2022-09-16T13:01:37.341Z,95904.44
2022-09-16T13:04:06.163Z,95901.13
2022-09-16T13:06:35.418Z,95888.56
2022-09-16T13:09:13.497Z,95893.44
2022-09-16T13:14:40.907Z,95896.56
2022-09-16T13:17:12.849Z,95879.34
2022-09-16T13:19:43.987Z,95878.16
2022-09-16T13:22:16.903Z,95880.78
2022-09-16T13:24:45.914Z,95878.34
2022-09-16T13:27:27.533Z,95877.91
2022-09-16T13:30:11.384Z,95879.38
2022-09-16T13:32:58.657Z,95880.47
2022-09-16T13:35:36.780Z,95883.34
2022-09-16T13:38:12.638Z,95879.28
2022-09-16T13:40:40.690Z,95885.25
2022-09-16T13:43:16.954Z,95881.78
2022-09-16T13:45:45.547Z,95881.00
2022-09-16T13:48:18.039Z,95887.13
2022-09-16T13:50:53.702Z,95881.31
2022-09-16T13:53:21.741Z,95875.94
2022-09-16T13:55:55.990Z,95880.50
2022-09-16T13:58:25.336Z,95876.50
2022-09-16T14:00:59.178Z,95903.00
2022-09-16T14:03:35.391Z,95875.78
2022-09-16T14:06:21.019Z,95865.22
2022-09-16T14:08:52.132Z,95869.50
2022-09-16T14:11:30.073Z,95868.66
2022-09-16T14:14:05.499Z,95863.97
2022-09-16T14:16:34.498Z,95857.16
2022-09-16T14:19:07.479Z,95849.09
2022-09-16T14:21:35.897Z,95849.41
2022-09-16T14:24:12.825Z,95847.09
2022-09-16T14:26:41.705Z,95852.78
2022-09-16T14:29:12.397Z,95846.16
2022-09-16T14:31:46.329Z,95853.63
2022-09-16T14:34:19.202Z,95849.69
2022-09-16T14:36:47.492Z,95852.53
2022-09-16T14:39:16.145Z,95854.56
2022-09-16T14:41:44.668Z,95852.47
2022-09-16T14:44:28.028Z,95856.06
2022-09-16T14:47:04.876Z,95857.03
2022-09-16T14:49:39.313Z,95849.56
2022-09-16T14:52:15.635Z,95858.91
2022-09-16T14:54:44.995Z,95855.63
2022-09-16T14:57:15.965Z,95861.19
2022-09-16T14:59:44.064Z,95863.84
2022-09-16T15:02:16.213Z,95871.53
2022-09-16T15:04:46.729Z,95862.44
2022-09-16T15:07:16.477Z,95866.06
2022-09-16T15:09:47.999Z,95863.53
2022-09-16T15:12:22.577Z,95867.63
2022-09-16T15:14:50.635Z,95864.44
2022-09-16T15:17:22.053Z,95858.47
2022-09-16T15:19:52.978Z,95864.16
2022-09-16T15:22:21.239Z,95861.50
2022-09-16T15:24:52.182Z,95864.91
2022-09-16T15:27:23.778Z,95857.38
2022-09-16T15:29:54.427Z,95851.38
2022-09-16T15:32:24.194Z,95852.03
2022-09-16T15:35:17.249Z,95863.53
2022-09-16T15:37:45.245Z,95857.06
2022-09-16T15:40:21.681Z,95861.31
2022-09-16T15:43:06.390Z,95858.81
2022-09-16T15:45:33.973Z,95856.94
2022-09-16T15:48:02.239Z,95871.28
2022-09-16T15:50:31.766Z,95868.88
2022-09-16T15:53:01.340Z,95873.75
2022-09-16T15:55:31.472Z,95879.88
2022-09-16T15:57:59.854Z,95873.28
2022-09-16T16:00:27.877Z,95871.34
2022-09-16T16:02:58.712Z,95870.13
2022-09-16T16:05:29.862Z,95861.81
2022-09-16T16:08:03.198Z,95863.91
2022-09-16T16:10:35.297Z,95862.28
2022-09-16T16:13:04.136Z,95826.38
2022-09-16T16:15:35.584Z,95869.66
2022-09-16T16:18:04.551Z,95867.91
2022-09-16T16:20:43.987Z,95866.34
2022-09-16T16:23:24.889Z,95866.81
2022-09-16T16:25:52.444Z,95868.59
2022-09-16T16:28:20.081Z,95865.81
2022-09-16T16:30:53.707Z,95870.00
2022-09-16T16:33:21.526Z,95873.56
2022-09-16T16:35:49.290Z,95875.94
2022-09-16T16:38:18.745Z,95872.94
2022-09-16T16:40:50.624Z,95876.88
2022-09-16T16:43:18.197Z,95877.38
2022-09-16T16:45:46.092Z,95882.63
2022-09-16T16:48:16.650Z,95876.06
2022-09-16T16:50:56.540Z,95872.00
2022-09-16T16:53:31.183Z,95878.22
2022-09-16T16:56:03.368Z,95880.94
2022-09-16T16:58:31.102Z,95884.53
2022-09-16T17:00:58.936Z,95904.66
2022-09-16T17:03:26.592Z,95899.06
2022-09-16T17:05:54.267Z,95907.22
2022-09-16T17:08:21.929Z,95924.66
2022-09-16T17:10:51.217Z,95932.47
2022-09-16T17:13:19.249Z,95938.38
2022-09-16T17:15:47.066Z,95946.00
2022-09-16T17:18:19.317Z,95943.88
2022-09-16T17:20:49.584Z,95946.22
2022-09-16T17:23:17.714Z,95941.28
2022-09-16T17:25:45.582Z,95950.66
2022-09-16T17:28:14.651Z,95957.50
2022-09-16T17:30:46.363Z,95968.25
2022-09-16T17:33:13.997Z,95964.31
2022-09-16T17:35:41.632Z,95970.25
2022-09-16T17:38:09.277Z,95971.81
2022-09-16T17:40:36.967Z,95974.59
2022-09-16T17:43:04.553Z,95955.00
2022-09-16T17:45:35.043Z,95959.94
2022-09-16T17:48:02.753Z,95966.97
2022-09-16T17:50:34.126Z,95964.53
2022-09-16T17:53:01.805Z,95963.88
2022-09-16T17:55:31.693Z,95966.47
2022-09-16T17:58:09.562Z,95963.00
2022-09-16T18:00:43.021Z,95966.84
2022-09-16T18:03:13.692Z,95974.31
2022-09-16T18:05:41.846Z,95967.72
2022-09-16T18:08:12.705Z,95973.88
2022-09-16T18:10:44.068Z,95971.53
2022-09-16T18:13:11.998Z,95976.84
2022-09-16T18:15:41.323Z,95985.38
2022-09-16T18:18:11.536Z,95993.69
2022-09-16T18:20:43.942Z,95992.75
2022-09-16T18:23:11.643Z,95996.53
2022-09-16T18:25:42.176Z,95995.03
2022-09-16T18:28:12.654Z,95990.38
2022-09-16T18:30:44.227Z,95998.09
2022-09-16T18:33:13.803Z,95996.53
2022-09-16T18:35:41.480Z,95998.13
2022-09-16T18:38:13.865Z,95999.69
2022-09-16T18:40:41.701Z,96007.88
2022-09-16T18:43:09.554Z,96007.03
2022-09-16T18:45:37.194Z,96017.28
2022-09-16T18:48:06.485Z,96007.59
2022-09-16T18:50:34.572Z,96024.69
2022-09-16T18:53:02.145Z,96018.91
2022-09-16T18:55:31.135Z,96012.97
2022-09-16T18:57:59.876Z,96007.34
2022-09-16T19:00:27.512Z,96012.41
2022-09-16T19:02:55.950Z,96015.34
2022-09-16T19:05:38.370Z,96018.84
2022-09-16T19:08:09.594Z,96008.34
2022-09-16T19:10:39.109Z,96022.16
2022-09-16T19:13:10.430Z,96015.09
2022-09-16T19:15:38.160Z,96015.25
2022-09-16T19:18:05.831Z,96023.53
2022-09-16T19:20:33.807Z,96024.84
2022-09-16T19:23:04.376Z,96014.75
2022-09-16T19:25:34.061Z,96027.63
2022-09-16T19:28:01.976Z,96034.47
2022-09-16T19:30:32.051Z,96025.47
2022-09-16T19:32:59.792Z,96033.56
2022-09-16T19:35:28.941Z,96036.38
2022-09-16T19:37:59.325Z,96032.25
2022-09-16T19:40:27.093Z,96021.69
2022-09-16T19:42:56.548Z,96023.13
2022-09-16T19:45:27.768Z,96024.75
2022-09-16T19:47:55.708Z,96013.38
2022-09-16T19:50:27.698Z,96013.59
2022-09-16T19:52:58.266Z,96014.34
2022-09-16T19:55:27.758Z,96018.66
2022-09-16T19:57:57.124Z,96021.03
2022-09-16T20:00:41.346Z,96019.72
2022-09-16T20:03:12.680Z,96037.41
2022-09-16T20:05:42.238Z,96037.84
2022-09-16T20:08:10.203Z,96037.03
2022-09-16T20:10:38.188Z,96028.84
2022-09-16T20:13:07.551Z,96039.72
2022-09-16T20:15:35.222Z,96040.78
2022-09-16T20:18:03.156Z,96027.63
2022-09-16T20:20:32.959Z,96037.41
2022-09-16T20:23:03.758Z,96029.59
2022-09-16T20:25:31.872Z,96023.84
2022-09-16T20:27:59.514Z,96029.81
2022-09-16T20:30:41.169Z,96029.47
2022-09-16T20:33:12.509Z,96032.25
2022-09-16T20:35:42.008Z,96030.31
2022-09-16T20:38:09.585Z,96027.84
2022-09-16T20:40:41.090Z,96032.56
2022-09-16T20:43:08.666Z,96030.72
2022-09-16T20:45:44.168Z,96039.47
2022-09-16T20:48:12.350Z,96041.19
2022-09-16T20:50:42.978Z,96029.22
2022-09-16T20:53:10.622Z,96041.66
2022-09-16T20:55:38.468Z,96039.09
2022-09-16T20:58:06.201Z,96039.84
2022-09-16T21:00:33.863Z,96040.81
2022-09-16T21:03:02.803Z,96053.38
2022-09-16T21:05:30.361Z,96043.41
2022-09-16T21:08:01.021Z,96054.81
2022-09-16T21:10:28.617Z,96057.69
2022-09-16T21:13:00.277Z,96062.56
2022-09-16T21:15:28.246Z,96052.88
2022-09-16T21:17:55.790Z,96061.94
2022-09-16T21:20:24.681Z,96058.00
2022-09-16T21:22:52.247Z,96065.78
2022-09-16T21:25:24.815Z,96066.97
2022-09-16T21:27:54.447Z,96074.94
2022-09-16T21:30:22.054Z,96068.72
2022-09-16T21:32:49.648Z,96072.22
2022-09-16T21:35:18.129Z,96075.66
2022-09-16T21:37:50.204Z,96070.56
2022-09-16T21:40:23.620Z,96070.56
2022-09-16T21:42:51.368Z,96075.44
2022-09-16T21:45:19.023Z,96076.19
2022-09-16T21:47:47.285Z,96077.47
2022-09-16T21:50:17.539Z,96074.91
2022-09-16T21:52:48.113Z,96072.69
2022-09-16T21:55:19.481Z,96071.22
2022-09-16T21:57:47.697Z,96080.03
2022-09-16T22:00:16.135Z,96073.81
2022-09-16T22:02:43.799Z,96079.84
2022-09-16T22:05:11.461Z,96083.34
2022-09-16T22:07:39.132Z,96081.78
2022-09-16T22:10:07.365Z,96081.59
2022-09-16T22:12:38.485Z,96077.53
2022-09-16T22:15:06.658Z,96090.53
2022-09-16T22:17:34.254Z,96089.50
2022-09-16T22:20:05.266Z,96085.19
2022-09-16T22:22:36.641Z,96086.25
2022-09-16T22:25:06.183Z,96087.06
2022-09-16T22:27:36.630Z,96086.31
2022-09-16T22:30:06.017Z,96087.53
2022-09-16T22:32:35.803Z,96089.63
2022-09-16T22:35:05.575Z,96097.44
2022-09-16T22:37:35.525Z,96096.91
2022-09-16T22:40:03.454Z,96096.81
2022-09-16T22:42:34.156Z,96095.66
2022-09-16T22:45:01.913Z,96089.34
2022-09-16T22:47:33.287Z,96091.44
2022-09-16T22:50:01.163Z,96081.38
2022-09-16T22:52:29.952Z,96085.38
2022-09-16T22:54:58.059Z,96086.78
2022-09-16T22:57:29.750Z,96088.44
2022-09-16T22:59:57.444Z,96086.44
2022-09-16T23:02:25.155Z,96080.97
2022-09-16T23:04:58.557Z,96087.06
2022-09-16T23:07:26.327Z,96087.47
2022-09-16T23:09:54.969Z,96085.44
2022-09-16T23:12:27.880Z,96092.75
2022-09-16T23:14:55.513Z,96091.31
2022-09-16T23:17:23.347Z,96098.41
2022-09-16T23:19:54.537Z,96091.88
2022-09-16T23:22:25.119Z,96091.22
2022-09-16T23:24:52.794Z,96091.94
2022-09-16T23:27:20.870Z,96094.88
2022-09-16T23:29:51.508Z,96095.91
2022-09-16T23:32:22.341Z,96095.34
2022-09-16T23:34:50.997Z,95838.09
2022-09-16T23:37:18.579Z,96095.09
2022-09-16T23:39:47.967Z,96086.28
2022-09-16T23:45:00.133Z,96097.59
2022-09-16T23:47:30.345Z,96091.53
2022-09-16T23:49:58.229Z,96093.16
2022-09-16T23:52:27.913Z,96089.44
2022-09-16T23:54:57.193Z,96088.00
2022-09-16T23:57:27.402Z,96087.47
2022-09-16T23:59:55.879Z,96089.09
